createdAt,value
2022-11-26T00:04:48.237Z,75.83
2022-11-26T00:09:50.321Z,76.00
2022-11-26T00:14:51.923Z,75.36
2022-11-26T00:19:53.343Z,75.73
2022-11-26T00:24:55.292Z,76.84
2022-11-26T00:29:56.758Z,77.17
2022-11-26T00:34:58.146Z,76.24
2022-11-26T00:39:59.656Z,76.18
2022-11-26T00:45:01.165Z,75.38
2022-11-26T00:50:02.609Z,75.26
2022-11-26T00:55:10.280Z,75.45
2022-11-26T01:00:17.188Z,74.93
2022-11-26T01:05:20.390Z,75.24
2022-11-26T01:10:24.788Z,75.26
2022-11-26T01:15:27.680Z,75.55
2022-11-26T01:20:31.067Z,75.34
2022-11-26T01:25:32.475Z,75.20
2022-11-26T01:30:33.950Z,75.39
2022-11-26T01:35:35.974Z,75.73
2022-11-26T01:40:53.343Z,74.49
2022-11-26T01:45:56.513Z,73.64
2022-11-26T01:51:06.824Z,74.08
2022-11-26T01:56:17.512Z,73.93
2022-11-26T02:01:19.332Z,74.22
2022-11-26T02:06:25.588Z,74.84
2022-11-26T02:11:27.101Z,74.56
2022-11-26T02:16:28.716Z,75.26
2022-11-26T02:21:34.305Z,75.16
2022-11-26T02:26:58.607Z,74.46
2022-11-26T02:32:10.264Z,74.39
2022-11-26T02:37:38.712Z,74.75
2022-11-26T02:42:40.211Z,74.55
2022-11-26T02:47:45.895Z,75.18
2022-11-26T02:52:49.804Z,75.43
2022-11-26T02:57:52.543Z,75.72
2022-11-26T03:02:59.984Z,75.15
2022-11-26T03:08:03.707Z,75.75
2022-11-26T03:13:05.272Z,74.64
2022-11-26T03:18:06.767Z,74.66
2022-11-26T03:23:08.189Z,74.50
2022-11-26T03:28:09.597Z,74.90
2022-11-26T03:33:11.076Z,74.96
2022-11-26T03:38:12.695Z,75.94
2022-11-26T03:43:14.100Z,75.20
2022-11-26T03:48:15.594Z,75.39
2022-11-26T03:53:17.070Z,75.46
2022-11-26T03:58:18.495Z,76.17
2022-11-26T04:03:20.144Z,75.92
2022-11-26T04:08:21.616Z,76.53
2022-11-26T04:13:23.100Z,75.46
2022-11-26T04:18:24.619Z,74.29
2022-11-26T04:23:26.065Z,74.89
2022-11-26T04:28:27.450Z,75.36
2022-11-26T04:33:28.862Z,75.93
2022-11-26T04:38:30.286Z,77.21
2022-11-26T04:43:31.782Z,76.58
2022-11-26T04:48:33.222Z,77.20
2022-11-26T04:53:34.688Z,77.51
2022-11-26T04:58:36.169Z,76.80
2022-11-26T05:03:37.640Z,77.22
2022-11-26T05:08:39.052Z,76.78
2022-11-26T05:13:40.507Z,75.99
2022-11-26T05:18:42.025Z,75.15
2022-11-26T05:23:43.507Z,75.32
2022-11-26T05:28:44.959Z,75.60
2022-11-26T05:33:46.353Z,76.31
2022-11-26T05:38:47.787Z,75.47
2022-11-26T05:43:49.250Z,75.57
2022-11-26T05:48:50.729Z,75.83
2022-11-26T05:53:52.155Z,75.26
2022-11-26T05:58:53.635Z,74.70
2022-11-26T06:03:55.112Z,74.04
2022-11-26T06:08:56.733Z,75.18
2022-11-26T06:13:58.181Z,74.58
2022-11-26T06:18:59.622Z,75.12
2022-11-26T06:24:01.060Z,75.08
2022-11-26T06:29:02.549Z,73.83
2022-11-26T06:34:04.053Z,73.14
2022-11-26T06:39:05.600Z,74.08
2022-11-26T06:44:07.188Z,73.16
2022-11-26T06:49:09.768Z,73.01
2022-11-26T06:54:11.164Z,73.20
2022-11-26T06:59:12.837Z,73.00
2022-11-26T07:04:15.010Z,72.95
2022-11-26T07:09:16.474Z,72.83
2022-11-26T07:14:17.904Z,72.30
2022-11-26T07:19:19.301Z,72.88
2022-11-26T07:24:20.750Z,73.65
2022-11-26T07:29:22.166Z,74.50
2022-11-26T07:34:23.655Z,74.42
2022-11-26T07:39:25.095Z,74.80
2022-11-26T07:44:26.514Z,75.23
2022-11-26T07:49:28.071Z,74.69
2022-11-26T07:54:29.555Z,74.74
2022-11-26T07:59:31.005Z,74.56
2022-11-26T08:04:32.445Z,75.06
2022-11-26T08:09:34.156Z,74.18
2022-11-26T08:14:35.675Z,74.31
2022-11-26T08:19:37.255Z,73.46
2022-11-26T08:24:38.843Z,75.14
2022-11-26T08:29:40.469Z,74.26
2022-11-26T08:34:42.040Z,72.68
2022-11-26T08:39:43.516Z,74.08
2022-11-26T08:44:44.900Z,74.05
2022-11-26T08:49:46.364Z,71.58
2022-11-26T08:54:48.080Z,71.16
2022-11-26T08:59:49.717Z,71.91
2022-11-26T09:04:51.933Z,71.84
2022-11-26T09:09:53.379Z,72.63
2022-11-26T09:14:54.941Z,73.59
2022-11-26T09:19:56.468Z,74.77
2022-11-26T09:24:57.947Z,73.71
2022-11-26T09:29:59.432Z,73.02
2022-11-26T09:35:00.850Z,71.98
2022-11-26T09:40:02.461Z,70.70
2022-11-26T09:45:30.099Z,71.69
2022-11-26T09:50:33.512Z,70.65
2022-11-26T09:55:40.904Z,71.33
2022-11-26T10:28:56.940Z,67.95
2022-11-26T10:34:02.444Z,68.99
2022-11-26T10:39:03.950Z,69.53
2022-11-26T10:49:43.866Z,69.68
2022-11-26T10:54:45.319Z,67.90
2022-11-26T10:59:52.050Z,67.09
2022-11-26T11:04:56.480Z,66.46
2022-11-26T11:10:10.022Z,62.83
2022-11-26T11:15:20.544Z,58.39
2022-11-26T11:20:52.776Z,58.22
2022-11-26T11:26:07.421Z,50.58
2022-11-26T11:31:17.605Z,44.07
2022-11-26T11:36:26.620Z,40.18
2022-11-26T11:41:32.147Z,37.57
2022-11-26T11:46:52.526Z,37.57
2022-11-26T11:52:15.466Z,40.60
2022-11-26T11:57:28.344Z,40.96
2022-11-26T12:02:57.529Z,38.86
2022-11-26T12:08:20.978Z,35.85
2022-11-26T12:13:23.519Z,35.19
2022-11-26T12:18:29.006Z,34.32
2022-11-26T12:23:47.812Z,33.49
2022-11-26T12:28:58.069Z,33.57
2022-11-26T12:34:11.019Z,34.25
2022-11-26T12:39:20.058Z,32.50
2022-11-26T12:44:36.599Z,33.32
2022-11-26T12:49:57.686Z,35.29
2022-11-26T12:55:09.291Z,35.63
2022-11-26T13:00:22.419Z,38.31
2022-11-26T13:05:45.312Z,38.84
2022-11-26T13:11:18.631Z,41.29
2022-11-26T13:16:45.093Z,43.56
2022-11-26T13:22:11.917Z,46.13
2022-11-26T13:27:38.736Z,47.01
2022-11-26T13:33:01.650Z,47.63
2022-11-26T13:38:30.834Z,49.56
2022-11-26T13:43:56.745Z,50.24
2022-11-26T13:49:06.196Z,51.68
2022-11-26T13:54:17.138Z,52.06
2022-11-26T13:59:28.394Z,51.21
2022-11-26T14:04:33.111Z,50.27
2022-11-26T14:09:43.600Z,50.65
2022-11-26T14:14:49.134Z,49.84
2022-11-26T14:19:50.488Z,51.74
2022-11-26T14:24:51.878Z,53.13
2022-11-26T14:30:03.230Z,53.39
2022-11-26T14:35:37.093Z,53.92
2022-11-26T14:40:38.718Z,53.91
2022-11-26T14:45:40.644Z,53.88
2022-11-26T14:50:43.044Z,54.75
2022-11-26T14:55:45.170Z,55.45
2022-11-26T15:01:21.188Z,55.95
2022-11-26T15:06:34.491Z,56.59
2022-11-26T15:11:40.536Z,57.56
2022-11-26T15:16:42.181Z,58.43
2022-11-26T15:21:43.704Z,59.72
